Time;durP1;ratioP1;P1;durP2;ratioP2;P2;SDS_P1;SDS_P2;PMS_P1;PMS_P2;Temp;Humidity;BMP_temperature;BMP_pressure;BME280_temperature;BME280_humidity;BME280_pressure;Samples;Min_cycle;Max_cycle;Signal;HPM_P1;HPM_P2
2022/05/01 00:00:35;;;;;;;2.33;1.80;;;20.10;36.70;;;;;;5141907;28;20015;-43
2022/05/01 00:03:02;;;;;;;2.88;2.05;;;20.00;36.70;;;;;;5141850;28;20024;-42
2022/05/01 00:05:29;;;;;;;2.60;1.90;;;20.00;36.80;;;;;;5141667;28;20380;-43
2022/05/01 00:07:55;;;;;;;2.40;1.80;;;20.00;36.70;;;;;;5141688;28;20088;-42
2022/05/01 00:10:21;;;;;;;3.05;2.13;;;20.00;36.70;;;;;;5141897;28;20465;-42
2022/05/01 00:12:48;;;;;;;2.95;1.85;;;20.00;36.80;;;;;;5138808;28;20465;-44
2022/05/01 00:15:13;;;;;;;3.20;2.10;;;20.00;36.80;;;;;;5140660;28;20102;-43
2022/05/01 00:17:40;;;;;;;2.38;2.00;;;20.00;36.80;;;;;;5139869;28;20031;-45
2022/05/01 00:20:06;;;;;;;3.67;2.30;;;20.00;36.80;;;;;;5139690;28;20050;-45
2022/05/01 00:22:32;;;;;;;2.83;2.00;;;20.00;36.90;;;;;;5139897;28;20046;-43
2022/05/01 00:24:59;;;;;;;3.08;2.03;;;20.10;36.90;;;;;;5140003;28;20045;-43
2022/05/01 00:27:25;;;;;;;3.58;1.90;;;20.00;36.90;;;;;;5139327;28;20026;-42
2022/05/01 00:29:51;;;;;;;2.42;2.10;;;20.00;36.90;;;;;;5139566;28;20552;-42
2022/05/01 00:32:17;;;;;;;3.00;2.00;;;20.00;36.90;;;;;;5140993;27;20011;-41
2022/05/01 00:37:27;;;;;;;2.95;2.03;;;20.00;37.00;;;;;;5140500;28;20075;-42
2022/05/01 00:39:54;;;;;;;3.22;2.00;;;20.00;37.00;;;;;;5141585;28;20023;-45
2022/05/01 00:42:20;;;;;;;2.42;2.10;;;20.00;37.10;;;;;;5138333;28;20103;-41
2022/05/01 00:44:45;;;;;;;2.28;1.88;;;20.00;37.60;;;;;;5137438;28;20023;-41
2022/05/01 00:47:12;;;;;;;3.88;2.17;;;20.00;37.10;;;;;;5138066;28;20082;-40
2022/05/01 00:49:38;;;;;;;3.33;2.10;;;20.00;37.10;;;;;;5137855;28;20496;-42
2022/05/01 00:52:09;;;;;;;3.35;2.00;;;20.00;37.10;;;;;;5138236;28;20054;-43
2022/05/01 00:54:35;;;;;;;;;;;20.00;37.10;;;;;;5138398;27;20018;-42
2022/05/01 00:57:03;;;;;;;2.85;2.10;;;20.00;37.20;;;;;;5138916;28;19968;-47
2022/05/01 00:59:30;;;;;;;3.22;2.10;;;19.90;37.20;;;;;;5138775;27;20042;-44
2022/05/01 01:01:56;;;;;;;3.70;2.40;;;20.00;37.20;;;;;;5137991;28;20063;-44
2022/05/01 01:04:22;;;;;;;3.17;2.45;;;19.90;37.20;;;;;;5138199;28;20024;-48
2022/05/01 01:06:50;;;;;;;2.78;2.00;;;19.90;37.20;;;;;;5141281;27;20496;-52
2022/05/01 01:09:16;;;;;;;3.95;2.17;;;20.00;37.30;;;;;;5141045;27;20034;-46
2022/05/01 01:11:45;;;;;;;4.10;2.05;;;19.90;37.20;;;;;;5141734;27;20428;-43
2022/05/01 01:14:12;;;;;;;2.78;2.10;;;19.90;37.30;;;;;;5141906;27;20047;-41
2022/05/01 01:16:38;;;;;;;2.55;2.00;;;19.90;37.80;;;;;;5125241;27;20011;-42
2022/05/01 01:19:08;;;;;;;3.47;2.10;;;19.90;37.30;;;;;;5143834;27;20098;-42
2022/05/01 01:21:35;;;;;;;3.13;2.22;;;19.90;37.40;;;;;;5141858;27;20047;-42
2022/05/01 01:24:03;;;;;;;2.75;2.08;;;19.90;37.30;;;;;;5142632;27;20011;-41
2022/05/01 01:26:29;;;;;;;2.78;2.10;;;19.90;37.40;;;;;;5140125;27;20016;-41
2022/05/01 01:28:54;;;;;;;3.03;2.33;;;19.90;37.40;;;;;;5141347;27;20023;-47
2022/05/01 01:34:06;;;;;;;3.38;2.33;;;19.90;37.40;;;;;;5143010;27;20083;-44
2022/05/01 01:36:32;;;;;;;3.70;2.28;;;19.90;37.40;;;;;;5143316;27;20089;-42
2022/05/01 01:38:59;;;;;;;3.50;2.30;;;19.90;37.50;;;;;;5143917;27;20023;-45
2022/05/01 01:41:28;;;;;;;3.00;2.40;;;19.90;37.50;;;;;;5141721;27;20437;-43
2022/05/01 01:43:53;;;;;;;3.00;2.17;;;19.90;37.50;;;;;;5140600;27;20477;-43
2022/05/01 01:46:20;;;;;;;3.28;2.20;;;19.90;37.40;;;;;;5140026;27;20024;-40
2022/05/01 01:48:47;;;;;;;3.78;2.30;;;19.90;37.50;;;;;;5139343;27;20031;-43
2022/05/01 01:51:12;;;;;;;2.22;2.03;;;19.90;37.50;;;;;;5140440;27;20532;-45
2022/05/01 01:53:39;;;;;;;3.55;2.38;;;19.90;37.50;;;;;;5139828;27;20028;-43
2022/05/01 01:56:08;;;;;;;3.33;2.40;;;19.90;37.50;;;;;;5139466;27;20468;-41
2022/05/01 01:58:34;;;;;;;4.45;2.58;;;19.90;37.60;;;;;;5140947;27;20087;-43
2022/05/01 02:00:59;;;;;;;3.63;2.50;;;19.90;37.60;;;;;;5140696;27;20697;-43
2022/05/01 02:03:26;;;;;;;4.47;2.67;;;19.90;37.60;;;;;;5139988;27;20023;-41
2022/05/01 02:05:52;;;;;;;2.65;2.10;;;19.90;37.60;;;;;;5140914;27;20030;-42
2022/05/01 02:08:18;;;;;;;2.55;2.30;;;19.80;37.60;;;;;;5140556;27;20050;-42
2022/05/01 02:10:44;;;;;;;3.05;2.40;;;19.80;37.60;;;;;;5141504;27;20011;-44
2022/05/01 02:13:10;;;;;;;3.08;2.40;;;19.80;37.60;;;;;;5141433;27;20469;-44
2022/05/01 02:15:37;;;;;;;3.63;2.35;;;19.80;37.50;;;;;;5139968;27;20014;-45
2022/05/01 02:18:04;;;;;;;2.92;2.55;;;19.80;37.50;;;;;;5140830;27;20027;-46
2022/05/01 02:23:18;;;;;;;3.13;2.38;;;19.80;37.60;;;;;;5140967;27;20519;-41
2022/05/01 02:25:43;;;;;;;3.17;2.23;;;19.80;37.50;;;;;;5140722;27;20019;-47
2022/05/01 02:28:11;;;;;;;3.17;2.30;;;19.80;37.50;;;;;;5143028;27;20809;-45
2022/05/01 02:30:38;;;;;;;3.10;2.50;;;19.80;37.60;;;;;;5144117;27;20441;-44
2022/05/01 02:33:06;;;;;;;3.38;2.25;;;19.80;37.60;;;;;;5145677;27;20350;-47
2022/05/01 02:35:32;;;;;;;2.90;2.60;;;19.80;37.60;;;;;;5145394;27;20011;-45
2022/05/01 02:37:59;;;;;;;3.08;2.70;;;19.80;37.60;;;;;;5143913;27;20020;-48
2022/05/01 02:40:25;;;;;;;2.83;2.40;;;19.80;37.60;;;;;;5143598;27;20015;-48
2022/05/01 02:42:52;;;;;;;4.30;2.83;;;19.80;37.50;;;;;;5140537;27;20034;-42
2022/05/01 02:45:18;;;;;;;3.35;2.70;;;19.80;37.60;;;;;;5141921;27;20019;-41
2022/05/01 02:47:44;;;;;;;2.85;2.50;;;19.80;37.60;;;;;;5141126;27;20469;-44
2022/05/01 02:50:11;;;;;;;3.17;2.42;;;19.70;37.60;;;;;;5141469;27;20046;-42
2022/05/01 02:52:38;;;;;;;3.50;2.20;;;19.70;37.60;;;;;;5141934;27;20016;-42
2022/05/01 02:55:06;;;;;;;2.63;2.30;;;19.70;37.50;;;;;;5142591;27;20067;-40
2022/05/01 02:57:33;;;;;;;3.15;2.60;;;19.70;37.50;;;;;;5142871;27;20007;-42
2022/05/01 03:00:00;;;;;;;3.83;2.70;;;19.70;37.50;;;;;;5142567;27;20072;-42
2022/05/01 03:02:27;;;;;;;3.15;2.50;;;19.70;37.50;;;;;;5141742;27;20011;-41
2022/05/01 03:04:52;;;;;;;3.80;2.47;;;19.70;37.60;;;;;;5142083;27;20023;-41
2022/05/01 03:07:18;;;;;;;4.10;2.55;;;19.70;37.50;;;;;;5142001;27;20068;-43
2022/05/01 03:09:46;;;;;;;3.22;2.38;;;19.70;37.50;;;;;;5142468;27;20031;-41
2022/05/01 03:12:12;;;;;;;2.88;2.45;;;19.70;37.50;;;;;;5141919;27;20003;-43
2022/05/01 03:14:38;;;;;;;3.90;2.50;;;19.70;37.60;;;;;;5142119;27;20012;-43
2022/05/01 03:17:04;;;;;;;3.60;2.58;;;19.70;37.50;;;;;;5142364;27;20521;-45
2022/05/01 03:22:15;;;;;;;2.88;2.50;;;19.70;37.50;;;;;;5143704;27;20042;-43
2022/05/01 03:24:41;;;;;;;3.22;2.53;;;19.70;37.60;;;;;;5143416;27;20023;-44
2022/05/01 03:27:07;;;;;;;3.50;2.50;;;19.70;37.50;;;;;;5142694;27;20019;-42
2022/05/01 03:29:33;;;;;;;4.13;2.83;;;19.70;37.50;;;;;;5141537;27;20038;-48
2022/05/01 03:31:59;;;;;;;3.92;2.72;;;19.70;37.50;;;;;;5142060;27;20377;-47
2022/05/01 03:34:26;;;;;;;3.05;2.55;;;19.70;37.60;;;;;;5142292;27;20026;-42
2022/05/01 03:36:55;;;;;;;3.47;2.75;;;19.60;37.50;;;;;;5143675;27;20011;-45
2022/05/01 03:39:21;;;;;;;4.03;2.72;;;19.60;37.50;;;;;;5143039;27;20011;-43
2022/05/01 03:41:47;;;;;;;3.53;2.90;;;19.60;37.40;;;;;;5142768;27;20068;-47
2022/05/01 03:44:14;;;;;;;4.88;2.85;;;19.70;37.50;;;;;;5145274;27;20019;-42
2022/05/01 03:46:40;;;;;;;4.18;2.78;;;19.60;37.50;;;;;;5145363;27;20483;-45
2022/05/01 03:49:06;;;;;;;3.33;2.90;;;19.60;37.40;;;;;;5143220;27;20034;-40
2022/05/01 03:51:33;;;;;;;3.08;2.65;;;19.60;37.40;;;;;;5144388;27;20461;-44
2022/05/01 03:54:02;;;;;;;3.40;2.65;;;19.60;37.30;;;;;;5143261;28;20008;-42
2022/05/01 03:56:31;;;;;;;3.42;2.60;;;19.60;37.30;;;;;;5141577;27;20461;-42
2022/05/01 03:58:57;;;;;;;2.95;2.60;;;19.60;37.40;;;;;;5139029;28;20050;-41
2022/05/01 04:01:23;;;;;;;3.92;2.90;;;19.60;37.40;;;;;;5139519;28;20039;-44
2022/05/01 04:03:50;;;;;;;2.75;2.50;;;19.60;37.40;;;;;;5137723;28;20031;-41
2022/05/01 04:06:16;;;;;;;3.53;2.70;;;19.60;37.40;;;;;;5138884;28;20031;-41
2022/05/01 04:08:42;;;;;;;3.53;2.63;;;19.60;37.30;;;;;;5137335;28;20039;-41
2022/05/01 04:11:09;;;;;;;4.47;2.83;;;19.60;37.40;;;;;;5135691;28;20504;-40
2022/05/01 04:13:35;;;;;;;3.42;2.67;;;19.60;37.30;;;;;;5134568;28;20022;-40
2022/05/01 04:16:01;;;;;;;3.33;2.78;;;19.60;37.30;;;;;;5134842;28;20019;-40
2022/05/01 04:18:27;;;;;;;3.58;2.83;;;19.60;37.30;;;;;;5135331;28;20144;-40
2022/05/01 04:20:53;;;;;;;3.80;2.80;;;19.60;37.30;;;;;;5135368;28;20080;-41
2022/05/01 04:23:20;;;;;;;3.60;2.88;;;19.60;37.30;;;;;;5135349;28;20023;-40
2022/05/01 04:25:46;;;;;;;4.82;2.80;;;19.50;37.20;;;;;;5135502;28;20018;-45
2022/05/01 04:28:13;;;;;;;4.40;3.00;;;19.60;37.20;;;;;;5140162;28;20088;-44
2022/05/01 04:30:42;;;;;;;3.30;2.85;;;19.60;37.30;;;;;;5141412;28;20102;-42
2022/05/01 04:33:09;;;;;;;4.53;2.88;;;19.50;37.20;;;;;;5140700;28;20023;-41
2022/05/01 04:35:40;;;;;;;4.03;2.80;;;19.60;37.20;;;;;;5141309;28;20076;-46
2022/05/01 04:38:13;;;;;;;3.72;2.92;;;19.60;37.20;;;;;;5140822;28;20011;-44
2022/05/01 04:40:40;;;;;;;3.35;2.80;;;19.60;37.20;;;;;;5127102;27;20019;-45
2022/05/01 04:43:10;;;;;;;3.97;3.10;;;19.50;37.20;;;;;;5146756;27;20103;-45
2022/05/01 04:45:38;;;;;;;4.88;3.15;;;19.50;37.10;;;;;;5146842;27;20038;-47
2022/05/01 04:48:06;;;;;;;4.25;3.10;;;19.60;37.10;;;;;;5144490;27;20746;-44
2022/05/01 04:50:32;;;;;;;3.15;2.85;;;19.60;37.10;;;;;;5143647;27;20552;-44
2022/05/01 04:53:00;;;;;;;3.70;3.15;;;19.60;36.90;;;;;;5143448;27;20457;-43
2022/05/01 04:55:26;;;;;;;3.10;2.80;;;19.70;36.90;;;;;;5143816;27;20019;-45
2022/05/01 04:57:53;;;;;;;4.82;3.00;;;19.70;36.80;;;;;;5140563;27;20022;-41
2022/05/01 05:00:20;;;;;;;3.60;3.30;;;19.80;36.70;;;;;;5137750;27;20011;-40
2022/05/01 05:02:50;;;;;;;3.83;3.28;;;19.80;36.70;;;;;;5137346;27;20015;-40
2022/05/01 05:05:16;;;;;;;3.50;3.10;;;19.80;36.50;;;;;;5137707;27;20027;-43
2022/05/01 05:07:43;;;;;;;5.40;3.33;;;19.80;36.40;;;;;;5137045;27;20007;-40
2022/05/01 05:10:09;;;;;;;4.85;3.53;;;19.90;36.30;;;;;;5137742;27;20088;-40
2022/05/01 05:12:36;;;;;;;3.63;2.90;;;20.00;36.30;;;;;;5143224;27;20020;-44
2022/05/01 05:15:07;;;;;;;3.50;3.00;;;20.00;36.10;;;;;;5143888;27;20027;-46
2022/05/01 05:17:33;;;;;;;3.70;3.05;;;20.00;36.10;;;;;;5144254;27;20016;-41
2022/05/01 05:20:00;;;;;;;3.70;3.00;;;20.00;35.90;;;;;;5144542;27;20012;-44
2022/05/01 05:22:26;;;;;;;4.75;3.05;;;20.20;35.70;;;;;;5144509;27;20011;-42
2022/05/01 05:24:52;;;;;;;4.43;3.03;;;20.20;35.50;;;;;;5144806;27;20011;-43
2022/05/01 05:27:20;;;;;;;3.55;3.08;;;20.30;35.40;;;;;;5139294;27;20019;-40
2022/05/01 05:29:49;;;;;;;4.97;3.40;;;20.30;35.20;;;;;;5137031;27;20107;-40
2022/05/01 05:32:16;;;;;;;3.67;3.22;;;20.40;35.10;;;;;;5137056;27;20463;-40
2022/05/01 05:34:41;;;;;;;3.47;3.08;;;20.50;35.00;;;;;;5137079;27;20546;-40
2022/05/01 05:37:07;;;;;;;4.25;3.35;;;20.50;34.90;;;;;;5137053;27;20051;-41
2022/05/01 05:39:33;;;;;;;3.42;3.13;;;20.50;34.80;;;;;;5101922;27;20475;-39
2022/05/01 05:41:59;;;;;;;4.45;3.20;;;20.60;34.70;;;;;;5143007;27;20031;-47
2022/05/01 05:44:26;;;;;;;3.33;3.00;;;20.60;34.60;;;;;;5144739;27;20393;-45
2022/05/01 05:46:52;;;;;;;3.42;3.00;;;20.60;34.50;;;;;;5145037;27;20022;-45
2022/05/01 05:49:18;;;;;;;4.43;3.00;;;20.70;34.40;;;;;;5145538;27;20044;-43
2022/05/01 05:51:44;;;;;;;3.90;3.20;;;20.70;34.30;;;;;;5144208;27;20046;-46
2022/05/01 05:54:11;;;;;;;3.70;3.20;;;20.80;34.30;;;;;;5142916;27;20020;-46
2022/05/01 05:56:36;;;;;;;3.92;3.38;;;20.90;34.20;;;;;;5143175;27;20011;-42
2022/05/01 05:59:03;;;;;;;3.90;3.47;;;20.90;34.10;;;;;;5143333;27;20481;-46
2022/05/01 06:01:29;;;;;;;3.50;3.17;;;21.00;34.00;;;;;;5143300;27;20015;-41
2022/05/01 06:03:55;;;;;;;3.58;3.05;;;21.10;33.90;;;;;;5141885;27;20545;-41
2022/05/01 06:06:20;;;;;;;3.65;3.13;;;21.20;33.70;;;;;;5142075;27;20034;-41
2022/05/01 06:08:46;;;;;;;3.22;2.92;;;21.30;33.60;;;;;;5142874;27;20034;-40
2022/05/01 06:11:12;;;;;;;3.95;3.25;;;21.40;33.40;;;;;;5139773;27;20060;-41
2022/05/01 06:13:39;;;;;;;3.00;2.67;;;21.50;33.20;;;;;;5136306;27;20019;-40
2022/05/01 06:16:05;;;;;;;3.85;2.92;;;21.70;33.00;;;;;;5135689;27;20469;-41
2022/05/01 06:18:31;;;;;;;4.53;3.03;;;21.80;32.90;;;;;;5135817;27;20068;-40
2022/05/01 06:20:57;;;;;;;3.53;2.90;;;21.80;32.70;;;;;;5135377;27;20556;-40
2022/05/01 06:23:24;;;;;;;3.22;2.92;;;21.80;32.70;;;;;;5134137;27;20110;-40
2022/05/01 06:25:50;;;;;;;3.00;2.70;;;21.90;32.70;;;;;;5136756;27;20055;-42
2022/05/01 06:28:16;;;;;;;3.90;2.92;;;21.80;32.60;;;;;;5139211;27;20058;-40
2022/05/01 06:30:43;;;;;;;4.63;3.00;;;21.90;32.60;;;;;;5140067;27;20004;-43
2022/05/01 06:33:13;;;;;;;4.57;2.97;;;21.90;32.40;;;;;;5122355;27;20537;-45
2022/05/01 06:35:39;;;;;;;3.38;2.92;;;22.00;32.40;;;;;;5139888;27;20036;-41
2022/05/01 06:38:08;;;;;;;3.22;2.88;;;22.00;32.40;;;;;;5140364;27;20023;-40
2022/05/01 06:40:35;;;;;;;4.35;3.00;;;22.00;32.40;;;;;;5140063;27;20029;-41
2022/05/01 06:43:01;;;;;;;4.38;3.10;;;21.90;32.50;;;;;;5137008;27;20020;-39
2022/05/01 06:45:28;;;;;;;3.15;2.78;;;21.90;32.60;;;;;;5136732;27;20111;-39
2022/05/01 06:47:54;;;;;;;3.67;3.00;;;21.80;32.60;;;;;;5135683;27;20090;-40
2022/05/01 06:50:20;;;;;;;3.30;3.00;;;21.80;32.70;;;;;;5137018;27;20644;-40
2022/05/01 06:52:46;;;;;;;3.00;2.60;;;21.80;32.80;;;;;;5136770;27;20043;-40
2022/05/01 06:55:14;;;;;;;3.33;2.90;;;21.80;32.80;;;;;;5136756;27;20503;-40
2022/05/01 06:57:39;;;;;;;3.38;2.95;;;21.80;32.80;;;;;;5138547;27;20106;-42
2022/05/01 07:00:07;;;;;;;3.05;2.85;;;21.80;32.80;;;;;;5138166;27;20016;-40
2022/05/01 07:02:34;;;;;;;4.13;2.65;;;21.80;32.70;;;;;;5137587;27;20019;-41
2022/05/01 07:05:01;;;;;;;3.40;3.00;;;21.90;32.80;;;;;;5137470;27;20094;-40
2022/05/01 07:07:28;;;;;;;3.75;3.10;;;21.90;32.60;;;;;;5136202;27;20026;-40
2022/05/01 07:09:53;;;;;;;3.15;2.70;;;22.00;32.60;;;;;;5136737;27;20030;-42
2022/05/01 07:12:20;;;;;;;3.33;2.88;;;22.10;32.50;;;;;;5138938;27;20091;-43
2022/05/01 07:14:48;;;;;;;3.13;2.60;;;22.20;32.50;;;;;;5139970;27;20021;-41
2022/05/01 07:17:13;;;;;;;3.65;3.05;;;22.20;32.40;;;;;;5140174;27;20017;-40
2022/05/01 07:19:39;;;;;;;3.60;2.88;;;22.30;32.30;;;;;;5139819;27;20110;-42
2022/05/01 07:22:05;;;;;;;3.05;2.60;;;22.40;32.20;;;;;;5140345;27;20571;-42
2022/05/01 07:24:31;;;;;;;2.88;2.58;;;22.40;32.00;;;;;;5138611;27;20045;-41
2022/05/01 07:26:56;;;;;;;3.08;2.67;;;22.60;32.00;;;;;;5135681;27;20011;-38
2022/05/01 07:29:22;;;;;;;3.72;2.80;;;22.70;31.80;;;;;;5136276;27;20473;-38
2022/05/01 07:31:49;;;;;;;3.30;3.00;;;22.80;31.60;;;;;;5137000;27;20031;-42
2022/05/01 07:34:16;;;;;;;4.28;3.10;;;22.90;31.50;;;;;;5137536;27;20019;-38
2022/05/01 07:36:44;;;;;;;4.13;3.28;;;23.10;31.40;;;;;;5137224;27;20022;-39
2022/05/01 07:39:10;;;;;;;2.80;2.60;;;23.20;31.30;;;;;;5137145;27;20015;-39
2022/05/01 07:41:37;;;;;;;3.03;2.63;;;23.20;31.20;;;;;;5138678;27;20034;-38
2022/05/01 07:44:02;;;;;;;3.95;3.00;;;23.30;31.00;;;;;;5138926;27;20023;-38
2022/05/01 07:46:28;;;;;;;3.45;2.63;;;23.40;31.00;;;;;;5139143;27;20031;-36
2022/05/01 07:48:55;;;;;;;3.22;2.80;;;23.50;30.90;;;;;;5138967;27;20023;-39
2022/05/01 07:51:21;;;;;;;3.10;2.60;;;23.50;30.80;;;;;;5136749;27;20064;-38
2022/05/01 07:53:48;;;;;;;3.28;2.80;;;23.50;30.70;;;;;;5139210;28;20022;-36
2022/05/01 07:56:14;;;;;;;4.18;2.60;;;23.70;30.70;;;;;;5139054;28;20026;-36
2022/05/01 07:58:41;;;;;;;2.85;2.50;;;23.80;30.60;;;;;;5138703;28;20027;-36
2022/05/01 08:01:07;;;;;;;3.10;2.80;;;23.90;30.40;;;;;;5138611;28;20023;-38
2022/05/01 08:06:18;;;;;;;3.95;2.80;;;24.10;30.10;;;;;;5137993;28;20077;-39
2022/05/01 08:08:44;;;;;;;3.83;2.78;;;24.30;30.00;;;;;;5138598;28;20027;-42
2022/05/01 08:11:13;;;;;;;3.50;2.80;;;24.40;30.00;;;;;;5139041;28;20019;-40
2022/05/01 08:13:39;;;;;;;3.27;2.97;;;24.50;29.90;;;;;;5139300;28;20034;-37
2022/05/01 08:16:04;;;;;;;3.13;2.83;;;24.50;29.80;;;;;;5140132;27;20007;-38
2022/05/01 08:21:17;;;;;;;2.95;2.53;;;24.70;29.70;;;;;;5142650;27;20043;-37
2022/05/01 08:23:42;;;;;;;2.80;2.50;;;24.70;29.60;;;;;;5142941;27;20015;-38
2022/05/01 08:26:10;;;;;;;2.88;2.58;;;24.80;29.60;;;;;;5143226;27;20461;-37
2022/05/01 08:28:40;;;;;;;3.00;2.65;;;24.90;29.60;;;;;;5142122;27;20050;-38
2022/05/01 08:31:06;;;;;;;2.80;2.55;;;25.00;29.50;;;;;;5141696;27;20034;-38
2022/05/01 08:33:32;;;;;;;3.83;2.53;;;25.00;29.50;;;;;;5142473;27;20011;-41
2022/05/01 08:35:59;;;;;;;4.15;2.72;;;25.00;29.40;;;;;;5141052;27;20011;-41
2022/05/01 08:38:25;;;;;;;3.40;2.70;;;25.00;29.30;;;;;;5141495;27;20080;-39
2022/05/01 08:40:52;;;;;;;3.33;2.85;;;25.10;29.50;;;;;;5141896;27;20020;-41
2022/05/01 08:43:18;;;;;;;3.35;2.75;;;25.00;29.40;;;;;;5140377;27;20026;-39
2022/05/01 08:46:11;;;;;;;2.67;2.47;;;25.10;29.50;;;;;;5142034;27;20018;-40
2022/05/01 08:48:51;;;;;;;3.38;2.47;;;25.10;29.40;;;;;;5140957;27;20031;-38
2022/05/01 08:51:17;;;;;;;3.15;2.78;;;25.10;29.40;;;;;;5142343;27;20068;-39
2022/05/01 08:53:43;;;;;;;3.20;2.80;;;25.10;29.40;;;;;;5141686;27;20022;-38
2022/05/01 08:56:09;;;;;;;4.03;2.70;;;25.00;29.50;;;;;;5141748;27;20018;-39
2022/05/01 08:58:35;;;;;;;3.22;2.35;;;24.90;29.60;;;;;;5141215;27;20019;-40
2022/05/01 09:01:01;;;;;;;2.90;2.60;;;24.70;29.70;;;;;;5140936;27;20473;-39
2022/05/01 09:03:27;;;;;;;2.90;2.60;;;24.60;29.90;;;;;;5142021;27;20392;-39
2022/05/01 09:05:53;;;;;;;3.45;2.50;;;24.50;30.00;;;;;;5123034;27;20018;-38
2022/05/01 09:08:19;;;;;;;3.45;2.70;;;24.40;30.20;;;;;;5139599;27;20033;-40
2022/05/01 09:10:45;;;;;;;3.63;2.95;;;24.30;30.40;;;;;;5139771;27;20110;-38
2022/05/01 09:13:10;;;;;;;4.03;2.58;;;24.20;30.60;;;;;;5138048;27;20019;-38
2022/05/01 09:15:41;;;;;;;3.25;2.90;;;24.20;30.60;;;;;;5137127;27;20063;-37
2022/05/01 09:18:11;;;;;;;3.00;2.55;;;24.10;30.60;;;;;;5138766;27;20071;-41
2022/05/01 09:20:57;;;;;;;3.42;2.75;;;24.20;30.60;;;;;;5138902;27;20031;-39
2022/05/01 09:23:41;;;;;;;3.05;2.50;;;24.30;30.50;;;;;;5139190;27;20398;-40
2022/05/01 09:26:15;;;;;;;3.10;2.70;;;24.30;30.40;;;;;;5138789;27;20065;-38
2022/05/01 09:28:54;;;;;;;3.25;2.75;;;24.20;30.50;;;;;;5140099;27;20083;-38
2022/05/01 09:31:50;;;;;;;3.33;2.45;;;24.10;30.70;;;;;;5139290;27;20034;-38
2022/05/01 09:34:28;;;;;;;3.15;2.67;;;24.00;30.80;;;;;;5139233;27;20015;-38
2022/05/01 09:36:54;;;;;;;2.92;2.60;;;23.80;31.00;;;;;;5139177;27;20011;-38
2022/05/01 09:39:25;;;;;;;3.13;2.58;;;23.80;31.20;;;;;;5137780;27;20442;-40
2022/05/01 09:41:51;;;;;;;3.80;3.10;;;23.60;31.30;;;;;;5138604;27;20038;-39
2022/05/01 09:44:19;;;;;;;3.13;2.80;;;23.50;31.50;;;;;;5137999;27;20089;-38
2022/05/01 09:46:45;;;;;;;3.10;2.80;;;23.50;31.70;;;;;;5137685;27;20011;-39
2022/05/01 09:49:13;;;;;;;3.67;2.72;;;23.30;31.80;;;;;;5137938;27;20027;-37
2022/05/01 09:51:42;;;;;;;3.78;2.90;;;23.30;31.90;;;;;;5138506;27;20024;-39
2022/05/01 09:54:08;;;;;;;3.00;2.70;;;23.20;32.00;;;;;;5138093;27;20532;-39
2022/05/01 09:56:47;;;;;;;3.70;2.67;;;23.10;32.10;;;;;;5139605;27;20035;-43
2022/05/01 09:59:13;;;;;;;3.60;2.63;;;23.10;32.10;;;;;;5140278;27;20011;-39
2022/05/01 10:01:40;;;;;;;3.83;3.00;;;23.10;32.20;;;;;;5140061;27;20148;-39
2022/05/01 10:04:06;;;;;;;3.58;3.00;;;23.10;32.30;;;;;;5139892;27;20496;-39
2022/05/01 10:06:32;;;;;;;3.05;2.72;;;23.10;32.30;;;;;;5139151;27;20019;-40
2022/05/01 10:08:58;;;;;;;2.63;2.42;;;23.10;32.20;;;;;;5139562;27;20477;-39
2022/05/01 10:11:24;;;;;;;2.95;2.63;;;23.20;32.00;;;;;;5141609;27;20039;-40
2022/05/01 10:13:51;;;;;;;2.92;2.63;;;23.30;31.80;;;;;;5139100;27;20026;-41
2022/05/01 10:16:17;;;;;;;5.20;2.90;;;23.40;31.70;;;;;;5139979;27;20016;-41
2022/05/01 10:18:44;;;;;;;2.75;2.40;;;23.50;31.50;;;;;;5140328;27;20038;-39
2022/05/01 10:21:10;;;;;;;3.38;2.80;;;23.60;31.20;;;;;;5140559;27;20035;-38
2022/05/01 10:23:36;;;;;;;3.92;2.78;;;23.70;31.00;;;;;;5139438;27;20011;-39
2022/05/01 10:26:25;;;;;;;2.90;2.53;;;23.80;30.90;;;;;;5140577;27;20027;-39
2022/05/01 10:29:07;;;;;;;3.03;2.47;;;23.80;30.70;;;;;;5124362;27;20088;-43
2022/05/01 10:35:02;;;;;;;3.35;2.42;;;23.90;30.50;;;;;;5141404;27;20046;-42
2022/05/01 10:37:36;;;;;;;2.40;2.20;;;24.00;30.40;;;;;;5140101;27;20469;-39
2022/05/01 10:40:03;;;;;;;3.15;2.45;;;23.90;30.30;;;;;;5141653;27;20015;-39
2022/05/01 10:42:38;;;;;;;3.45;2.40;;;23.90;30.30;;;;;;5141242;27;20051;-39
2022/05/01 10:45:25;;;;;;;2.40;2.20;;;23.90;30.30;;;;;;5143391;27;20019;-40
2022/05/01 10:47:54;;;;;;;4.15;2.60;;;23.90;30.30;;;;;;5135849;27;20095;-39
2022/05/01 10:50:29;;;;;;;3.55;2.45;;;23.90;30.30;;;;;;5142850;27;20553;-39
2022/05/01 10:53:16;;;;;;;2.90;2.50;;;23.90;30.30;;;;;;5143292;27;20042;-40
2022/05/01 10:55:42;;;;;;;2.50;2.20;;;23.80;30.20;;;;;;5143430;27;20033;-39
2022/05/01 10:58:27;;;;;;;3.20;2.55;;;23.80;30.20;;;;;;5142043;27;20023;-40
2022/05/01 11:01:10;;;;;;;3.05;2.60;;;23.80;30.30;;;;;;5142365;27;20106;-40
2022/05/01 11:03:36;;;;;;;2.90;2.60;;;23.70;30.30;;;;;;5141370;27;20096;-39
2022/05/01 11:06:02;;;;;;;2.63;2.35;;;23.70;30.40;;;;;;5141031;27;20015;-40
2022/05/01 11:08:39;;;;;;;3.22;2.63;;;23.60;30.40;;;;;;5143818;27;20035;-39
2022/05/01 11:11:07;;;;;;;3.05;2.80;;;23.60;30.40;;;;;;5142185;27;20036;-39
2022/05/01 11:13:36;;;;;;;3.13;2.65;;;23.60;30.50;;;;;;5141297;27;20007;-42
2022/05/01 11:16:02;;;;;;;3.23;2.87;;;23.50;30.50;;;;;;5142703;27;20019;-42
2022/05/01 11:18:40;;;;;;;2.83;2.50;;;23.50;30.50;;;;;;5142168;27;20021;-38
2022/05/01 11:21:36;;;;;;;3.00;2.70;;;23.40;30.60;;;;;;5142091;27;20047;-39
2022/05/01 11:24:04;;;;;;;3.88;2.78;;;23.40;30.60;;;;;;5140247;27;20458;-43
2022/05/01 11:26:29;;;;;;;3.20;2.80;;;23.40;30.60;;;;;;5141282;27;20107;-37
2022/05/01 11:29:17;;;;;;;3.95;2.83;;;23.40;30.60;;;;;;5142040;27;20082;-38
2022/05/01 11:31:44;;;;;;;3.35;2.90;;;23.30;30.50;;;;;;5141394;27;20007;-40
2022/05/01 11:34:16;;;;;;;3.05;2.72;;;23.30;30.50;;;;;;5139937;27;20011;-39
2022/05/01 11:36:53;;;;;;;3.28;2.80;;;23.30;30.50;;;;;;5139786;27;20023;-41
2022/05/01 11:39:22;;;;;;;3.20;2.90;;;23.30;30.50;;;;;;5139335;27;20015;-37
2022/05/01 11:42:00;;;;;;;3.95;3.20;;;23.30;30.50;;;;;;5138836;27;20031;-39
2022/05/01 11:44:26;;;;;;;3.45;2.78;;;23.30;30.50;;;;;;5139169;27;20076;-38
2022/05/01 11:46:52;;;;;;;3.85;3.05;;;23.30;30.50;;;;;;5136078;27;20023;-38
2022/05/01 11:49:18;;;;;;;3.20;2.90;;;23.20;30.50;;;;;;5138209;27;20084;-38
2022/05/01 11:51:47;;;;;;;3.22;2.90;;;23.20;30.50;;;;;;5139294;27;20020;-40
2022/05/01 11:54:15;;;;;;;3.40;3.10;;;23.20;30.40;;;;;;5140698;27;20095;-38
2022/05/01 12:02:26;;;;;;;4.60;3.40;;;23.10;30.50;;;;;;5139752;28;20502;-38
2022/05/01 12:04:58;;;;;;;3.47;3.17;;;23.10;30.50;;;;;;5139532;28;20019;-39
2022/05/01 12:07:24;;;;;;;3.85;3.20;;;23.10;30.50;;;;;;5138452;28;20025;-37
2022/05/01 12:09:53;;;;;;;3.30;3.10;;;23.10;30.50;;;;;;5138961;28;20024;-39
2022/05/01 12:12:19;;;;;;;3.50;3.20;;;23.10;30.60;;;;;;5139095;28;20015;-39
2022/05/01 12:14:47;;;;;;;3.42;3.13;;;23.10;30.60;;;;;;5139956;28;20469;-39
2022/05/01 12:17:14;;;;;;;3.60;3.05;;;23.10;30.60;;;;;;5139495;28;20023;-38
2022/05/01 12:19:44;;;;;;;3.85;3.45;;;23.00;30.60;;;;;;5139201;28;20027;-37
2022/05/01 12:22:14;;;;;;;3.50;3.20;;;23.00;30.50;;;;;;5139502;28;20050;-40
2022/05/01 12:24:40;;;;;;;;;;;23.00;30.60;;;;;;5139027;28;20012;-37
2022/05/01 12:27:07;;;;;;;4.07;3.42;;;23.00;30.60;;;;;;5138380;28;19899;-37
2022/05/01 12:29:35;;;;;;;3.67;3.35;;;23.00;30.60;;;;;;5135826;28;20138;-37
2022/05/01 12:32:09;;;;;;;3.95;3.55;;;23.00;30.60;;;;;;5135413;28;20015;-36
2022/05/01 12:34:39;;;;;;;4.03;3.63;;;23.00;30.70;;;;;;5136264;28;20019;-36
2022/05/01 12:37:10;;;;;;;3.30;3.00;;;22.90;30.60;;;;;;5136862;27;20011;-37
2022/05/01 12:39:36;;;;;;;4.22;3.72;;;22.90;30.70;;;;;;5135442;28;20019;-37
2022/05/01 12:45:11;;;;;;;4.10;3.70;;;22.90;30.70;;;;;;5139826;28;20098;-36
2022/05/01 12:47:43;;;;;;;3.30;3.00;;;22.90;30.80;;;;;;5139814;28;20004;-36
2022/05/01 12:50:24;;;;;;;3.50;3.20;;;22.90;30.70;;;;;;5140935;28;20023;-38
2022/05/01 12:52:54;;;;;;;3.83;3.53;;;22.90;30.70;;;;;;5140607;28;20023;-37
2022/05/01 12:55:29;;;;;;;3.88;3.50;;;22.90;30.70;;;;;;5139131;28;20034;-36
2022/05/01 12:57:57;;;;;;;3.63;3.33;;;22.90;30.70;;;;;;5137592;28;20015;-37
2022/05/01 13:00:32;;;;;;;4.05;3.65;;;22.80;30.60;;;;;;5136355;27;20035;-37
2022/05/01 13:03:36;;;;;;;4.30;3.70;;;22.80;30.60;;;;;;5139737;27;20498;-37
2022/05/01 13:06:04;;;;;;;3.47;3.17;;;22.80;30.70;;;;;;5139651;27;20103;-37
2022/05/01 13:08:32;;;;;;;4.40;3.60;;;22.80;30.70;;;;;;5139756;27;20027;-36
2022/05/01 13:11:21;;;;;;;3.92;3.60;;;22.80;30.70;;;;;;5138085;27;20011;-37
2022/05/01 13:14:06;;;;;;;3.80;3.40;;;22.80;30.70;;;;;;5137546;27;20086;-35
2022/05/01 13:16:31;;;;;;;4.25;3.83;;;22.80;30.70;;;;;;5137465;27;20377;-36
2022/05/01 13:19:13;;;;;;;3.40;3.10;;;22.80;30.70;;;;;;5139044;27;20027;-36
2022/05/01 13:21:49;;;;;;;3.67;3.22;;;22.80;30.70;;;;;;5139029;27;20031;-36